sensor_id;sensor_type;location;lat;lon;timestamp;pressure;altitude;pressure_sealevel;temperature;humidity
50632;BME280;49583;45.590;-122.498;2023-11-19T00:01:33;99895.33;;;10.61;51.89
50632;BME280;49583;45.590;-122.498;2023-11-19T00:03:46;99896.80;;;10.58;51.95
50632;BME280;49583;45.590;-122.498;2023-11-19T00:06:00;99896.36;;;10.55;51.95
50632;BME280;49583;45.590;-122.498;2023-11-19T00:08:12;99901.48;;;10.50;51.94
50632;BME280;49583;45.590;-122.498;2023-11-19T00:10:25;99899.04;;;10.48;52.07
50632;BME280;49583;45.590;-122.498;2023-11-19T00:12:38;99898.00;;;10.44;52.17
50632;BME280;49583;45.590;-122.498;2023-11-19T00:14:51;99897.94;;;10.39;52.27
50632;BME280;49583;45.590;-122.498;2023-11-19T00:17:05;99907.39;;;10.37;52.39
50632;BME280;49583;45.590;-122.498;2023-11-19T00:19:17;99907.27;;;10.33;52.31
50632;BME280;49583;45.590;-122.498;2023-11-19T00:21:30;99906.38;;;10.29;52.56
50632;BME280;49583;45.590;-122.498;2023-11-19T00:23:43;99908.85;;;10.26;52.61
50632;BME280;49583;45.590;-122.498;2023-11-19T00:25:56;99904.91;;;10.24;52.82
50632;BME280;49583;45.590;-122.498;2023-11-19T00:28:08;99912.48;;;10.24;53.22
50632;BME280;49583;45.590;-122.498;2023-11-19T00:30:21;99912.64;;;10.24;53.08
50632;BME280;49583;45.590;-122.498;2023-11-19T00:32:35;99913.48;;;10.23;53.14
50632;BME280;49583;45.590;-122.498;2023-11-19T00:34:49;99913.02;;;10.21;52.98
50632;BME280;49583;45.590;-122.498;2023-11-19T00:37:01;99912.30;;;10.20;53.23
50632;BME280;49583;45.590;-122.498;2023-11-19T00:39:14;99907.75;;;10.18;53.33
50632;BME280;49583;45.590;-122.498;2023-11-19T00:41:28;99904.15;;;10.19;53.83
50632;BME280;49583;45.590;-122.498;2023-11-19T00:43:40;99902.02;;;10.18;53.83
50632;BME280;49583;45.590;-122.498;2023-11-19T00:45:53;99897.59;;;10.15;54.02
50632;BME280;49583;45.590;-122.498;2023-11-19T00:48:06;99895.52;;;10.11;54.32
50632;BME280;49583;45.590;-122.498;2023-11-19T00:50:19;99889.43;;;10.04;54.42
50632;BME280;49583;45.590;-122.498;2023-11-19T00:52:32;99890.14;;;9.98;54.61
50632;BME280;49583;45.590;-122.498;2023-11-19T00:54:45;99903.20;;;9.92;54.94
50632;BME280;49583;45.590;-122.498;2023-11-19T00:56:58;99919.50;;;9.89;54.81
50632;BME280;49583;45.590;-122.498;2023-11-19T00:59:11;99923.99;;;9.86;55.01
50632;BME280;49583;45.590;-122.498;2023-11-19T01:01:24;99931.76;;;9.82;55.27
50632;BME280;49583;45.590;-122.498;2023-11-19T01:03:36;99931.72;;;9.79;55.34
50632;BME280;49583;45.590;-122.498;2023-11-19T01:05:49;99937.06;;;9.77;55.61
50632;BME280;49583;45.590;-122.498;2023-11-19T01:08:02;99941.83;;;9.75;55.80
50632;BME280;49583;45.590;-122.498;2023-11-19T01:10:15;99939.68;;;9.72;55.87
50632;BME280;49583;45.590;-122.498;2023-11-19T01:12:28;99939.47;;;9.69;56.02
50632;BME280;49583;45.590;-122.498;2023-11-19T01:14:41;99940.54;;;9.66;56.37
50632;BME280;49583;45.590;-122.498;2023-11-19T01:16:54;99939.60;;;9.61;56.50
50632;BME280;49583;45.590;-122.498;2023-11-19T01:19:07;99947.36;;;9.57;56.70
50632;BME280;49583;45.590;-122.498;2023-11-19T01:21:26;99945.75;;;9.54;57.00
50632;BME280;49583;45.590;-122.498;2023-11-19T01:23:38;99950.70;;;9.49;57.11
50632;BME280;49583;45.590;-122.498;2023-11-19T01:25:53;99953.81;;;9.43;57.39
50632;BME280;49583;45.590;-122.498;2023-11-19T01:28:05;99955.05;;;9.38;57.75
50632;BME280;49583;45.590;-122.498;2023-11-19T01:30:19;99965.57;;;9.31;57.88
50632;BME280;49583;45.590;-122.498;2023-11-19T01:32:31;99968.78;;;9.27;58.00
50632;BME280;49583;45.590;-122.498;2023-11-19T01:34:45;99970.73;;;9.21;58.60
50632;BME280;49583;45.590;-122.498;2023-11-19T01:36:57;99969.44;;;9.13;58.87
50632;BME280;49583;45.590;-122.498;2023-11-19T01:39:10;99972.09;;;9.08;59.07
50632;BME280;49583;45.590;-122.498;2023-11-19T01:41:24;99975.71;;;9.01;59.32
50632;BME280;49583;45.590;-122.498;2023-11-19T01:43:38;99975.98;;;8.94;59.53
50632;BME280;49583;45.590;-122.498;2023-11-19T01:45:52;99976.14;;;8.88;59.85
50632;BME280;49583;45.590;-122.498;2023-11-19T01:48:05;99983.63;;;8.84;60.14
50632;BME280;49583;45.590;-122.498;2023-11-19T01:50:22;99981.41;;;8.78;60.29
50632;BME280;49583;45.590;-122.498;2023-11-19T01:52:36;99981.59;;;8.74;60.37
50632;BME280;49583;45.590;-122.498;2023-11-19T01:54:50;99983.41;;;8.68;60.93
50632;BME280;49583;45.590;-122.498;2023-11-19T01:57:04;99986.00;;;8.64;60.96
50632;BME280;49583;45.590;-122.498;2023-11-19T01:59:17;99993.91;;;8.62;60.89
50632;BME280;49583;45.590;-122.498;2023-11-19T02:01:31;99988.45;;;8.62;60.90
50632;BME280;49583;45.590;-122.498;2023-11-19T02:03:48;99994.86;;;8.63;61.40
50632;BME280;49583;45.590;-122.498;2023-11-19T02:06:01;99994.17;;;8.63;61.24
50632;BME280;49583;45.590;-122.498;2023-11-19T02:08:13;99998.48;;;8.64;61.35
50632;BME280;49583;45.590;-122.498;2023-11-19T02:10:26;100002.22;;;8.64;61.63
50632;BME280;49583;45.590;-122.498;2023-11-19T02:12:39;100000.92;;;8.62;61.97
50632;BME280;49583;45.590;-122.498;2023-11-19T02:14:53;99995.26;;;8.59;61.88
50632;BME280;49583;45.590;-122.498;2023-11-19T02:17:06;99997.23;;;8.60;62.21
50632;BME280;49583;45.590;-122.498;2023-11-19T02:19:21;100000.19;;;8.60;62.23
50632;BME280;49583;45.590;-122.498;2023-11-19T02:21:34;100003.64;;;8.61;62.40
50632;BME280;49583;45.590;-122.498;2023-11-19T02:23:46;99999.34;;;8.61;62.59
50632;BME280;49583;45.590;-122.498;2023-11-19T02:26:13;99998.23;;;8.58;62.66
50632;BME280;49583;45.590;-122.498;2023-11-19T02:28:28;99997.83;;;8.58;62.98
50632;BME280;49583;45.590;-122.498;2023-11-19T02:30:41;99997.34;;;8.57;62.96
50632;BME280;49583;45.590;-122.498;2023-11-19T02:32:53;99994.21;;;8.56;63.08
50632;BME280;49583;45.590;-122.498;2023-11-19T02:35:08;100000.08;;;8.54;63.43
50632;BME280;49583;45.590;-122.498;2023-11-19T02:37:21;100002.87;;;8.48;63.46
50632;BME280;49583;45.590;-122.498;2023-11-19T02:39:33;100004.30;;;8.46;63.34
50632;BME280;49583;45.590;-122.498;2023-11-19T02:41:46;100008.52;;;8.42;63.83
50632;BME280;49583;45.590;-122.498;2023-11-19T02:44:00;100010.92;;;8.38;63.92
50632;BME280;49583;45.590;-122.498;2023-11-19T02:46:14;100012.33;;;8.33;64.07
50632;BME280;49583;45.590;-122.498;2023-11-19T02:48:27;100013.62;;;8.29;64.13
50632;BME280;49583;45.590;-122.498;2023-11-19T02:50:40;100012.16;;;8.26;64.47
50632;BME280;49583;45.590;-122.498;2023-11-19T02:52:54;100009.65;;;8.25;64.38
50632;BME280;49583;45.590;-122.498;2023-11-19T02:55:09;100013.48;;;8.26;64.69
50632;BME280;49583;45.590;-122.498;2023-11-19T02:57:23;100024.94;;;8.26;64.80
50632;BME280;49583;45.590;-122.498;2023-11-19T02:59:38;100030.27;;;8.24;64.96
50632;BME280;49583;45.590;-122.498;2023-11-19T03:01:53;100034.33;;;8.21;65.13
50632;BME280;49583;45.590;-122.498;2023-11-19T03:04:07;100036.57;;;8.19;65.30
50632;BME280;49583;45.590;-122.498;2023-11-19T03:06:23;100033.55;;;8.18;65.54
50632;BME280;49583;45.590;-122.498;2023-11-19T03:08:37;100035.04;;;8.13;65.86
50632;BME280;49583;45.590;-122.498;2023-11-19T03:10:50;100045.64;;;8.10;65.74
50632;BME280;49583;45.590;-122.498;2023-11-19T03:13:02;100044.39;;;8.07;66.37
50632;BME280;49583;45.590;-122.498;2023-11-19T03:15:15;100025.42;;;8.01;66.34
50632;BME280;49583;45.590;-122.498;2023-11-19T03:17:28;100037.27;;;7.98;66.17
50632;BME280;49583;45.590;-122.498;2023-11-19T03:19:41;100039.25;;;7.95;66.51
50632;BME280;49583;45.590;-122.498;2023-11-19T03:21:53;100043.64;;;7.93;66.67
50632;BME280;49583;45.590;-122.498;2023-11-19T03:24:07;100051.02;;;7.92;66.88
50632;BME280;49583;45.590;-122.498;2023-11-19T03:26:23;100045.42;;;7.89;67.14
50632;BME280;49583;45.590;-122.498;2023-11-19T03:28:35;100041.89;;;7.84;67.44
50632;BME280;49583;45.590;-122.498;2023-11-19T03:30:48;100040.67;;;7.82;67.47
50632;BME280;49583;45.590;-122.498;2023-11-19T03:33:00;100042.28;;;7.81;67.65
50632;BME280;49583;45.590;-122.498;2023-11-19T03:35:13;100044.65;;;7.79;67.90
50632;BME280;49583;45.590;-122.498;2023-11-19T03:37:26;100054.40;;;7.77;68.22
50632;BME280;49583;45.590;-122.498;2023-11-19T03:39:38;100053.56;;;7.73;68.14
50632;BME280;49583;45.590;-122.498;2023-11-19T03:41:50;100061.30;;;7.71;69.26
50632;BME280;49583;45.590;-122.498;2023-11-19T03:44:05;100067.66;;;7.66;69.39
50632;BME280;49583;45.590;-122.498;2023-11-19T03:46:22;100085.50;;;7.61;69.83
50632;BME280;49583;45.590;-122.498;2023-11-19T03:48:34;100093.39;;;7.55;69.62
50632;BME280;49583;45.590;-122.498;2023-11-19T03:50:48;100074.38;;;7.51;70.18
50632;BME280;49583;45.590;-122.498;2023-11-19T03:53:00;100085.53;;;7.46;70.12
50632;BME280;49583;45.590;-122.498;2023-11-19T03:55:16;100092.17;;;7.43;70.10
50632;BME280;49583;45.590;-122.498;2023-11-19T03:57:29;100098.58;;;7.38;70.31
50632;BME280;49583;45.590;-122.498;2023-11-19T03:59:45;100106.70;;;7.37;70.27
50632;BME280;49583;45.590;-122.498;2023-11-19T04:01:59;100115.77;;;7.35;70.42
50632;BME280;49583;45.590;-122.498;2023-11-19T04:04:13;100119.23;;;7.33;70.93
50632;BME280;49583;45.590;-122.498;2023-11-19T04:06:26;100111.96;;;7.29;71.18
50632;BME280;49583;45.590;-122.498;2023-11-19T04:08:39;100109.79;;;7.26;70.94
50632;BME280;49583;45.590;-122.498;2023-11-19T04:10:51;100118.41;;;7.25;71.51
50632;BME280;49583;45.590;-122.498;2023-11-19T04:13:04;100121.37;;;7.23;71.60
50632;BME280;49583;45.590;-122.498;2023-11-19T04:15:16;100125.84;;;7.21;71.81
50632;BME280;49583;45.590;-122.498;2023-11-19T04:17:30;100134.73;;;7.18;71.91
50632;BME280;49583;45.590;-122.498;2023-11-19T04:19:43;100136.61;;;7.16;72.28
50632;BME280;49583;45.590;-122.498;2023-11-19T04:21:56;100147.66;;;7.17;71.90
50632;BME280;49583;45.590;-122.498;2023-11-19T04:24:10;100156.82;;;7.18;71.94
50632;BME280;49583;45.590;-122.498;2023-11-19T04:26:26;100163.08;;;7.20;71.97
50632;BME280;49583;45.590;-122.498;2023-11-19T04:28:39;100169.51;;;7.22;71.92
50632;BME280;49583;45.590;-122.498;2023-11-19T04:30:53;100171.07;;;7.24;71.99
50632;BME280;49583;45.590;-122.498;2023-11-19T04:33:06;100178.23;;;7.28;72.02
50632;BME280;49583;45.590;-122.498;2023-11-19T04:35:19;100178.84;;;7.28;72.31
50632;BME280;49583;45.590;-122.498;2023-11-19T04:37:31;100183.27;;;7.27;72.22
50632;BME280;49583;45.590;-122.498;2023-11-19T04:39:46;100179.44;;;7.26;72.25
50632;BME280;49583;45.590;-122.498;2023-11-19T04:41:58;100185.39;;;7.24;72.34
50632;BME280;49583;45.590;-122.498;2023-11-19T04:44:11;100192.08;;;7.25;72.52
50632;BME280;49583;45.590;-122.498;2023-11-19T04:46:25;100197.02;;;7.24;72.94
50632;BME280;49583;45.590;-122.498;2023-11-19T04:48:38;100212.05;;;7.22;72.81
50632;BME280;49583;45.590;-122.498;2023-11-19T04:50:51;100225.27;;;7.18;73.19
50632;BME280;49583;45.590;-122.498;2023-11-19T04:53:04;100236.58;;;7.13;73.20
50632;BME280;49583;45.590;-122.498;2023-11-19T04:55:17;100246.63;;;7.11;73.32
50632;BME280;49583;45.590;-122.498;2023-11-19T04:57:30;100245.80;;;7.07;73.50
50632;BME280;49583;45.590;-122.498;2023-11-19T04:59:43;100249.09;;;7.05;73.86
50632;BME280;49583;45.590;-122.498;2023-11-19T05:01:55;100256.52;;;7.03;73.75
50632;BME280;49583;45.590;-122.498;2023-11-19T05:04:09;100274.55;;;7.02;73.75
50632;BME280;49583;45.590;-122.498;2023-11-19T05:06:22;100278.71;;;6.99;73.91
50632;BME280;49583;45.590;-122.498;2023-11-19T05:08:35;100306.02;;;7.00;74.02
50632;BME280;49583;45.590;-122.498;2023-11-19T06:04:21;100537.13;;;7.31;74.95
50632;BME280;49583;45.590;-122.498;2023-11-19T06:06:32;100544.36;;;7.32;75.10
50632;BME280;49583;45.590;-122.498;2023-11-19T06:08:41;100542.95;;;7.32;75.13
50632;BME280;49583;45.590;-122.498;2023-11-19T06:10:51;100553.28;;;7.34;75.14
50632;BME280;49583;45.590;-122.498;2023-11-19T06:13:01;100563.63;;;7.34;75.10
50632;BME280;49583;45.590;-122.498;2023-11-19T06:15:15;100574.62;;;7.34;75.29
50632;BME280;49583;45.590;-122.498;2023-11-19T06:17:25;100576.88;;;7.35;75.27
50632;BME280;49583;45.590;-122.498;2023-11-19T06:19:34;100586.15;;;7.35;75.35
50632;BME280;49583;45.590;-122.498;2023-11-19T06:21:44;100594.85;;;7.38;75.36
50632;BME280;49583;45.590;-122.498;2023-11-19T06:23:53;100596.70;;;7.39;75.55
50632;BME280;49583;45.590;-122.498;2023-11-19T06:26:03;100606.73;;;7.44;75.63
50632;BME280;49583;45.590;-122.498;2023-11-19T06:28:13;100603.75;;;7.46;75.74
50632;BME280;49583;45.590;-122.498;2023-11-19T06:30:22;100613.46;;;7.50;75.83
50632;BME280;49583;45.590;-122.498;2023-11-19T06:32:32;100620.23;;;7.52;75.78
50632;BME280;49583;45.590;-122.498;2023-11-19T06:34:43;100624.36;;;7.54;75.80
50632;BME280;49583;45.590;-122.498;2023-11-19T06:36:53;100633.30;;;7.56;75.86
50632;BME280;49583;45.590;-122.498;2023-11-19T06:39:02;100635.36;;;7.57;75.93
50632;BME280;49583;45.590;-122.498;2023-11-19T06:41:13;100639.08;;;7.58;75.99
50632;BME280;49583;45.590;-122.498;2023-11-19T06:43:23;100641.57;;;7.59;76.15
50632;BME280;49583;45.590;-122.498;2023-11-19T06:45:33;100647.67;;;7.60;76.13
50632;BME280;49583;45.590;-122.498;2023-11-19T06:47:45;100650.25;;;7.60;76.21
50632;BME280;49583;45.590;-122.498;2023-11-19T06:49:55;100654.49;;;7.61;76.32
50632;BME280;49583;45.590;-122.498;2023-11-19T06:52:05;100660.55;;;7.63;76.37
50632;BME280;49583;45.590;-122.498;2023-11-19T06:54:14;100666.18;;;7.64;76.40
50632;BME280;49583;45.590;-122.498;2023-11-19T06:56:25;100666.38;;;7.64;76.52
50632;BME280;49583;45.590;-122.498;2023-11-19T06:58:38;100675.91;;;7.66;76.55
50632;BME280;49583;45.590;-122.498;2023-11-19T07:00:48;100679.36;;;7.66;76.61
50632;BME280;49583;45.590;-122.498;2023-11-19T07:02:59;100686.70;;;7.68;76.61
50632;BME280;49583;45.590;-122.498;2023-11-19T07:05:10;100693.27;;;7.68;76.68
50632;BME280;49583;45.590;-122.498;2023-11-19T07:07:20;100704.93;;;7.70;76.87
50632;BME280;49583;45.590;-122.498;2023-11-19T07:09:30;100713.35;;;7.72;76.85
50632;BME280;49583;45.590;-122.498;2023-11-19T07:11:40;100722.97;;;7.74;76.91
50632;BME280;49583;45.590;-122.498;2023-11-19T07:13:50;100733.71;;;7.76;77.03
50632;BME280;49583;45.590;-122.498;2023-11-19T07:16:00;100741.61;;;7.78;77.05
50632;BME280;49583;45.590;-122.498;2023-11-19T07:18:10;100748.05;;;7.79;77.16
50632;BME280;49583;45.590;-122.498;2023-11-19T07:20:20;100751.77;;;7.80;77.15
50632;BME280;49583;45.590;-122.498;2023-11-19T07:22:31;100754.45;;;7.81;77.24
50632;BME280;49583;45.590;-122.498;2023-11-19T07:24:42;100765.84;;;7.82;77.28
50632;BME280;49583;45.590;-122.498;2023-11-19T07:26:52;100770.13;;;7.83;77.30
50632;BME280;49583;45.590;-122.498;2023-11-19T07:29:02;100775.00;;;7.84;77.39
50632;BME280;49583;45.590;-122.498;2023-11-19T07:31:16;100779.48;;;7.85;77.44
50632;BME280;49583;45.590;-122.498;2023-11-19T07:33:27;100789.36;;;7.84;77.33
50632;BME280;49583;45.590;-122.498;2023-11-19T07:35:37;100802.72;;;7.86;77.34
50632;BME280;49583;45.590;-122.498;2023-11-19T07:37:49;100805.86;;;7.86;77.49
50632;BME280;49583;45.590;-122.498;2023-11-19T07:40:01;100815.61;;;7.86;77.56
50632;BME280;49583;45.590;-122.498;2023-11-19T07:42:12;100823.92;;;7.86;77.56
50632;BME280;49583;45.590;-122.498;2023-11-19T07:44:22;100834.73;;;7.85;77.44
50632;BME280;49583;45.590;-122.498;2023-11-19T07:46:32;100841.19;;;7.85;77.62
50632;BME280;49583;45.590;-122.498;2023-11-19T07:48:42;100853.16;;;7.84;77.60
50632;BME280;49583;45.590;-122.498;2023-11-19T07:50:52;100858.16;;;7.85;77.68
50632;BME280;49583;45.590;-122.498;2023-11-19T07:53:01;100861.61;;;7.86;77.73
50632;BME280;49583;45.590;-122.498;2023-11-19T07:55:12;100866.05;;;7.85;77.86
50632;BME280;49583;45.590;-122.498;2023-11-19T07:57:22;100880.92;;;7.85;77.86
50632;BME280;49583;45.590;-122.498;2023-11-19T07:59:32;100895.04;;;7.86;77.77
50632;BME280;49583;45.590;-122.498;2023-11-19T08:01:42;100909.98;;;7.87;77.80
50632;BME280;49583;45.590;-122.498;2023-11-19T08:03:52;100924.91;;;7.89;77.95
50632;BME280;49583;45.590;-122.498;2023-11-19T08:06:05;100929.08;;;7.90;77.97
50632;BME280;49583;45.590;-122.498;2023-11-19T08:08:15;100933.41;;;7.91;78.04
50632;BME280;49583;45.590;-122.498;2023-11-19T08:10:25;100937.80;;;7.92;78.10
50632;BME280;49583;45.590;-122.498;2023-11-19T08:12:34;100941.48;;;7.92;78.05
50632;BME280;49583;45.590;-122.498;2023-11-19T08:14:44;100942.05;;;7.93;77.97
50632;BME280;49583;45.590;-122.498;2023-11-19T08:16:54;100948.45;;;7.93;78.07
50632;BME280;49583;45.590;-122.498;2023-11-19T08:19:03;100962.42;;;7.94;78.01
50632;BME280;49583;45.590;-122.498;2023-11-19T08:21:13;100981.83;;;7.96;78.17
50632;BME280;49583;45.590;-122.498;2023-11-19T08:23:24;100987.48;;;7.97;78.24
50632;BME280;49583;45.590;-122.498;2023-11-19T08:25:36;100987.19;;;7.98;78.09
50632;BME280;49583;45.590;-122.498;2023-11-19T08:27:46;100990.08;;;8.00;78.19
50632;BME280;49583;45.590;-122.498;2023-11-19T08:29:56;100994.27;;;8.02;78.34
50632;BME280;49583;45.590;-122.498;2023-11-19T08:32:07;100998.60;;;8.03;78.33
50632;BME280;49583;45.590;-122.498;2023-11-19T08:34:17;100999.36;;;8.02;78.27
50632;BME280;49583;45.590;-122.498;2023-11-19T08:36:26;100994.38;;;8.05;78.31
50632;BME280;49583;45.590;-122.498;2023-11-19T08:38:37;101002.15;;;8.04;78.52
50632;BME280;49583;45.590;-122.498;2023-11-19T08:40:46;101013.86;;;8.05;78.50
50632;BME280;49583;45.590;-122.498;2023-11-19T08:43:00;101024.99;;;8.07;78.55
50632;BME280;49583;45.590;-122.498;2023-11-19T08:45:11;101031.60;;;8.08;78.60
50632;BME280;49583;45.590;-122.498;2023-11-19T08:47:23;101044.75;;;8.10;78.54
50632;BME280;49583;45.590;-122.498;2023-11-19T08:49:32;101056.39;;;8.10;78.58
50632;BME280;49583;45.590;-122.498;2023-11-19T08:51:42;101066.92;;;8.11;78.61
50632;BME280;49583;45.590;-122.498;2023-11-19T08:53:53;101081.20;;;8.11;78.57
50632;BME280;49583;45.590;-122.498;2023-11-19T08:56:04;101087.91;;;8.10;78.77
50632;BME280;49583;45.590;-122.498;2023-11-19T08:58:14;101104.38;;;8.13;78.81
50632;BME280;49583;45.590;-122.498;2023-11-19T09:00:24;101117.80;;;8.13;78.82
50632;BME280;49583;45.590;-122.498;2023-11-19T09:02:34;101132.45;;;8.13;78.94
50632;BME280;49583;45.590;-122.498;2023-11-19T09:04:45;101141.14;;;8.14;79.05
50632;BME280;49583;45.590;-122.498;2023-11-19T09:06:59;101147.81;;;8.15;78.94
50632;BME280;49583;45.590;-122.498;2023-11-19T09:09:12;101157.17;;;8.16;79.08
50632;BME280;49583;45.590;-122.498;2023-11-19T09:11:25;101160.86;;;8.16;79.02
50632;BME280;49583;45.590;-122.498;2023-11-19T09:13:34;101162.42;;;8.16;79.03
50632;BME280;49583;45.590;-122.498;2023-11-19T09:15:44;101170.75;;;8.18;79.17
50632;BME280;49583;45.590;-122.498;2023-11-19T09:17:54;101178.25;;;8.18;79.03
50632;BME280;49583;45.590;-122.498;2023-11-19T09:20:04;101185.52;;;8.19;79.19
50632;BME280;49583;45.590;-122.498;2023-11-19T09:22:14;101195.49;;;8.19;79.19
50632;BME280;49583;45.590;-122.498;2023-11-19T09:24:24;101203.83;;;8.19;79.22
50632;BME280;49583;45.590;-122.498;2023-11-19T09:26:34;101202.04;;;8.19;79.49
50632;BME280;49583;45.590;-122.498;2023-11-19T09:28:44;101207.36;;;8.19;79.51
50632;BME280;49583;45.590;-122.498;2023-11-19T09:31:00;101219.08;;;8.20;79.33
50632;BME280;49583;45.590;-122.498;2023-11-19T09:33:12;101226.12;;;8.21;79.52
50632;BME280;49583;45.590;-122.498;2023-11-19T09:35:23;101229.57;;;8.21;79.38
50632;BME280;49583;45.590;-122.498;2023-11-19T09:37:32;101237.84;;;8.21;79.75
50632;BME280;49583;45.590;-122.498;2023-11-19T09:39:42;101241.29;;;8.22;79.72
50632;BME280;49583;45.590;-122.498;2023-11-19T09:41:52;101247.30;;;8.22;79.76
50632;BME280;49583;45.590;-122.498;2023-11-19T09:44:01;101243.89;;;8.23;79.92
50632;BME280;49583;45.590;-122.498;2023-11-19T09:46:12;101248.64;;;8.23;79.77
50632;BME280;49583;45.590;-122.498;2023-11-19T09:48:26;101257.20;;;8.24;79.89
50632;BME280;49583;45.590;-122.498;2023-11-19T09:50:36;101265.59;;;8.23;79.83
50632;BME280;49583;45.590;-122.498;2023-11-19T09:52:48;101267.83;;;8.23;79.87
50632;BME280;49583;45.590;-122.498;2023-11-19T09:54:57;101273.09;;;8.24;80.09
50632;BME280;49583;45.590;-122.498;2023-11-19T09:57:08;101282.38;;;8.24;80.14
50632;BME280;49583;45.590;-122.498;2023-11-19T09:59:17;101291.26;;;8.24;80.13
50632;BME280;49583;45.590;-122.498;2023-11-19T10:01:26;101298.23;;;8.25;80.32
50632;BME280;49583;45.590;-122.498;2023-11-19T10:03:37;101310.88;;;8.25;80.28
50632;BME280;49583;45.590;-122.498;2023-11-19T10:05:49;101311.06;;;8.26;80.33
50632;BME280;49583;45.590;-122.498;2023-11-19T10:08:00;101312.67;;;8.27;80.42
50632;BME280;49583;45.590;-122.498;2023-11-19T10:10:12;101317.80;;;8.28;80.28
50632;BME280;49583;45.590;-122.498;2023-11-19T10:12:26;101322.36;;;8.30;80.27
50632;BME280;49583;45.590;-122.498;2023-11-19T10:14:36;101337.45;;;8.32;80.33
50632;BME280;49583;45.590;-122.498;2023-11-19T10:16:47;101351.05;;;8.33;80.19
50632;BME280;49583;45.590;-122.498;2023-11-19T10:18:57;101349.36;;;8.33;80.11
50632;BME280;49583;45.590;-122.498;2023-11-19T10:21:07;101350.13;;;8.34;80.10
50632;BME280;49583;45.590;-122.498;2023-11-19T10:23:20;101356.52;;;8.36;80.14
50632;BME280;49583;45.590;-122.498;2023-11-19T10:25:29;101362.13;;;8.37;80.09
50632;BME280;49583;45.590;-122.498;2023-11-19T10:27:39;101364.58;;;8.37;80.12
50632;BME280;49583;45.590;-122.498;2023-11-19T10:29:49;101368.95;;;8.39;80.19
50632;BME280;49583;45.590;-122.498;2023-11-19T10:32:01;101373.50;;;8.40;80.25
50632;BME280;49583;45.590;-122.498;2023-11-19T10:34:31;101383.96;;;8.40;80.15
50632;BME280;49583;45.590;-122.498;2023-11-19T10:36:41;101388.66;;;8.39;79.99
50632;BME280;49583;45.590;-122.498;2023-11-19T10:38:57;101401.36;;;8.39;79.86
50632;BME280;49583;45.590;-122.498;2023-11-19T10:41:08;101402.88;;;8.38;79.71
50632;BME280;49583;45.590;-122.498;2023-11-19T10:43:17;101410.55;;;8.36;79.76
50632;BME280;49583;45.590;-122.498;2023-11-19T10:45:27;101417.39;;;8.34;79.71
50632;BME280;49583;45.590;-122.498;2023-11-19T10:47:37;101423.86;;;8.31;79.59
50632;BME280;49583;45.590;-122.498;2023-11-19T10:49:50;101425.24;;;8.27;79.45
50632;BME280;49583;45.590;-122.498;2023-11-19T10:52:00;101425.92;;;8.24;79.32
50632;BME280;49583;45.590;-122.498;2023-11-19T10:54:10;101429.96;;;8.21;79.58
50632;BME280;49583;45.590;-122.498;2023-11-19T10:56:25;101444.02;;;8.21;79.43
50632;BME280;49583;45.590;-122.498;2023-11-19T10:58:43;101448.60;;;8.21;79.41
50632;BME280;49583;45.590;-122.498;2023-11-19T11:00:57;101460.28;;;8.19;79.36
50632;BME280;49583;45.590;-122.498;2023-11-19T11:03:15;101468.84;;;8.15;79.17
50632;BME280;49583;45.590;-122.498;2023-11-19T11:05:27;101471.71;;;8.11;79.21
50632;BME280;49583;45.590;-122.498;2023-11-19T11:07:38;101472.52;;;8.08;79.11
50632;BME280;49583;45.590;-122.498;2023-11-19T11:09:49;101481.98;;;8.05;79.15
50632;BME280;49583;45.590;-122.498;2023-11-19T11:12:00;101472.95;;;8.03;79.12
50632;BME280;49583;45.590;-122.498;2023-11-19T11:14:11;101473.94;;;8.01;79.16
50632;BME280;49583;45.590;-122.498;2023-11-19T11:16:21;101476.59;;;8.00;79.27
50632;BME280;49583;45.590;-122.498;2023-11-19T11:18:31;101487.73;;;7.98;79.36
50632;BME280;49583;45.590;-122.498;2023-11-19T11:20:41;101492.64;;;7.98;79.46
50632;BME280;49583;45.590;-122.498;2023-11-19T11:23:00;101498.67;;;8.00;79.61
50632;BME280;49583;45.590;-122.498;2023-11-19T11:25:43;101512.96;;;8.02;79.64
50632;BME280;49583;45.590;-122.498;2023-11-19T11:28:15;101517.41;;;8.03;79.77
50632;BME280;49583;45.590;-122.498;2023-11-19T11:30:35;101529.86;;;8.06;79.69
50632;BME280;49583;45.590;-122.498;2023-11-19T11:32:54;101542.11;;;8.06;79.77
50632;BME280;49583;45.590;-122.498;2023-11-19T11:35:26;101549.30;;;8.07;79.86
50632;BME280;49583;45.590;-122.498;2023-11-19T11:37:42;101550.59;;;8.07;80.02
50632;BME280;49583;45.590;-122.498;2023-11-19T11:39:55;101557.20;;;8.07;79.95
50632;BME280;49583;45.590;-122.498;2023-11-19T11:42:36;101563.90;;;8.06;79.87
50632;BME280;49583;45.590;-122.498;2023-11-19T11:45:02;101564.52;;;8.05;79.85
50632;BME280;49583;45.590;-122.498;2023-11-19T11:47:13;101568.80;;;8.05;79.84
50632;BME280;49583;45.590;-122.498;2023-11-19T11:49:43;101571.14;;;8.05;79.81
50632;BME280;49583;45.590;-122.498;2023-11-19T11:52:14;101576.96;;;8.05;79.69
50632;BME280;49583;45.590;-122.498;2023-11-19T11:54:31;101580.98;;;8.06;79.72
50632;BME280;49583;45.590;-122.498;2023-11-19T11:57:13;101594.24;;;8.08;79.75
50632;BME280;49583;45.590;-122.498;2023-11-19T11:59:40;101603.77;;;8.08;79.74
50632;BME280;49583;45.590;-122.498;2023-11-19T12:02:00;101604.64;;;8.08;79.49
50632;BME280;49583;45.590;-122.498;2023-11-19T12:04:33;101609.64;;;8.09;79.33
50632;BME280;49583;45.590;-122.498;2023-11-19T12:07:06;101612.44;;;8.08;79.41
50632;BME280;49583;45.590;-122.498;2023-11-19T12:09:31;101622.04;;;8.08;79.44
50632;BME280;49583;45.590;-122.498;2023-11-19T12:11:51;101629.64;;;8.08;79.29